Time;durP1;ratioP1;P1;durP2;ratioP2;P2;SDS_P1;SDS_P2;PMS_P1;PMS_P2;Temp;Humidity;BMP_temperature;BMP_pressure;BME280_temperature;BME280_humidity;BME280_pressure;Samples;Min_cycle;Max_cycle;Signal;HPM_P1;HPM_P2
2023/05/25 00:00:14;;;;;;;1.50;1.00;;;;;;;25.18;37.24;102472.75;5011163;28;96908;-73
2023/05/25 00:02:41;;;;;;;1.38;1.00;;;;;;;25.18;37.17;102470.00;5013147;28;97347;-73
2023/05/25 00:05:09;;;;;;;1.63;0.98;;;;;;;25.18;37.23;102470.00;5012054;28;97557;-73
2023/05/25 00:07:36;;;;;;;1.95;0.95;;;;;;;25.17;37.03;102471.03;5012726;28;96657;-73
2023/05/25 00:10:05;;;;;;;1.42;0.77;;;;;;;25.17;37.05;102471.03;5011129;28;97097;-73
2023/05/25 00:12:32;;;;;;;2.05;0.95;;;;;;;25.17;37.17;102471.03;5012819;28;96886;-73
2023/05/25 00:14:59;;;;;;;1.70;1.00;;;;;;;25.17;37.19;102471.03;5011570;28;97173;-73
2023/05/25 00:17:30;;;;;;;1.60;1.00;;;;;;;25.16;37.02;102472.94;5011622;28;96642;-73
2023/05/25 00:20:06;;;;;;;1.17;1.08;;;;;;;25.16;36.96;102472.06;5012196;28;97049;-73
2023/05/25 00:22:36;;;;;;;1.65;1.00;;;;;;;25.16;37.18;102474.81;5012687;28;97528;-73
2023/05/25 00:25:04;;;;;;;1.23;0.75;;;;;;;25.15;37.10;102476.69;5012182;28;96691;-73
2023/05/25 00:27:30;;;;;;;1.20;0.73;;;;;;;25.15;37.25;102475.84;5012948;28;96604;-73
2023/05/25 00:29:57;;;;;;;1.77;1.10;;;;;;;25.15;37.00;102478.59;5012717;28;97676;-73
2023/05/25 00:32:26;;;;;;;1.45;1.00;;;;;;;25.14;37.08;102469.47;4998990;28;97203;-73
2023/05/25 00:34:53;;;;;;;1.50;0.95;;;;;;;25.15;36.95;102476.69;5010727;28;96708;-73
2023/05/25 00:37:20;;;;;;;2.85;0.90;;;;;;;25.14;37.22;102474.13;5012677;28;96732;-73
2023/05/25 00:39:46;;;;;;;1.45;0.82;;;;;;;25.14;37.26;102468.63;5010995;28;100075;-73
2023/05/25 00:42:14;;;;;;;1.92;0.90;;;;;;;25.13;37.19;102470.50;5010655;28;97446;-72
2023/05/25 00:44:41;;;;;;;1.83;0.95;;;;;;;25.14;37.37;102474.13;5011207;28;97031;-74
2023/05/25 00:47:10;;;;;;;1.92;1.02;;;;;;;25.13;37.37;102467.75;5012317;28;97081;-73
2023/05/25 00:49:37;;;;;;;1.55;0.93;;;;;;;25.14;37.34;102472.22;4993806;28;99273;-73
2023/05/25 00:52:04;;;;;;;1.10;0.80;;;;;;;25.14;37.25;102471.38;5011397;28;99289;-74
2023/05/25 00:54:32;;;;;;;2.55;1.00;;;;;;;25.14;37.04;102474.13;5009408;28;97037;-73
2023/05/25 00:57:03;;;;;;;1.48;1.00;;;;;;;25.14;37.09;102468.63;5013117;28;96440;-73
2023/05/25 00:59:35;;;;;;;2.58;1.10;;;;;;;25.13;37.02;102470.50;5010474;28;99303;-73
2023/05/25 01:02:07;;;;;;;1.75;1.08;;;;;;;25.13;37.15;102480.63;5020937;28;98143;-73
2023/05/25 01:04:43;;;;;;;3.28;1.35;;;;;;;25.12;37.08;102485.28;5014718;28;97070;-73
2023/05/25 01:07:16;;;;;;;1.65;1.20;;;;;;;25.13;37.22;102488.88;5011757;28;97233;-73
2023/05/25 01:09:44;;;;;;;2.22;1.08;;;;;;;25.11;37.15;102483.56;5010449;28;97689;-73
2023/05/25 01:12:13;;;;;;;1.15;0.80;;;;;;;25.11;37.39;102479.94;5010129;28;99725;-74
2023/05/25 01:14:40;;;;;;;1.30;1.05;;;;;;;25.11;37.09;102489.06;5009965;28;96834;-73
2023/05/25 01:17:09;;;;;;;1.30;0.90;;;;;;;25.11;37.00;102480.81;5010323;28;98013;-74
2023/05/25 01:19:39;;;;;;;1.40;1.00;;;;;;;25.11;37.21;102483.56;5009663;28;98939;-73
2023/05/25 01:22:24;;;;;;;1.48;1.00;;;;;;;25.10;36.93;102487.34;5011713;28;96755;-72
2023/05/25 01:24:56;;;;;;;1.33;1.08;;;;;;;25.09;37.18;102480.09;5000802;28;98502;-73
2023/05/25 01:27:34;;;;;;;1.98;1.10;;;;;;;25.11;37.28;102493.69;5007171;28;97263;-73
2023/05/25 01:30:03;;;;;;;1.30;0.90;;;;;;;25.08;37.21;102492.13;5011543;28;97641;-73
2023/05/25 01:32:31;;;;;;;1.48;0.90;;;;;;;25.08;37.07;102489.38;5009741;28;100474;-73
2023/05/25 01:35:00;;;;;;;1.20;0.70;;;;;;;25.07;37.07;102493.16;5011264;28;97251;-73
2023/05/25 01:37:26;;;;;;;2.35;1.00;;;;;;;25.08;37.29;102499.53;5010051;28;96830;-73
2023/05/25 01:39:55;;;;;;;1.38;1.00;;;;;;;25.08;37.24;102500.38;5009056;28;98467;-73
2023/05/25 01:42:21;;;;;;;1.45;0.80;;;;;;;25.08;37.11;102494.88;5011519;28;97010;-73
2023/05/25 01:44:49;;;;;;;1.80;0.80;;;;;;;25.08;37.22;102500.38;5011209;28;97059;-73
2023/05/25 01:47:27;;;;;;;1.58;0.82;;;;;;;25.09;36.98;102504.84;5010797;28;96855;-73
2023/05/25 01:50:18;;;;;;;1.17;0.80;;;;;;;25.07;37.35;102498.66;5009527;28;100852;-73
2023/05/25 01:52:55;;;;;;;1.65;1.10;;;;;;;25.06;37.02;102498.81;4994307;28;99260;-73
2023/05/25 01:55:25;;;;;;;;;;;;;;;25.00;37.18;102503.09;5011919;28;97252;-73
2023/05/25 01:57:56;;;;;;;1.48;0.80;;;;;;;25.01;37.32;102510.31;5011314;28;96838;-73
2023/05/25 02:00:30;;;;;;;1.88;1.33;;;;;;;25.01;37.03;102508.41;5009560;28;99603;-73
2023/05/25 02:02:58;;;;;;;2.97;1.13;;;;;;;25.01;37.18;102510.31;5009483;28;99590;-73
2023/05/25 02:05:26;;;;;;;1.42;0.80;;;;;;;25.02;36.97;102507.41;5009014;28;96987;-73
2023/05/25 02:07:53;;;;;;;1.30;0.88;;;;;;;25.02;37.27;102509.28;5011152;28;96714;-73
2023/05/25 02:10:20;;;;;;;1.52;1.00;;;;;;;25.02;37.17;102501.03;5009818;28;100437;-73
2023/05/25 02:12:48;;;;;;;1.10;0.85;;;;;;;25.03;37.15;102502.75;5009923;28;97109;-73
2023/05/25 02:15:15;;;;;;;1.25;0.80;;;;;;;25.02;36.95;102504.66;5010216;28;96772;-73
2023/05/25 02:17:42;;;;;;;1.38;1.00;;;;;;;25.01;37.37;102497.44;5014395;28;96974;-73
2023/05/25 02:20:10;;;;;;;1.20;1.00;;;;;;;25.03;36.97;102505.50;5016209;28;98847;-73
2023/05/25 02:22:37;;;;;;;1.70;1.10;;;;;;;25.02;37.09;102512.03;5010984;28;97955;-73
2023/05/25 02:25:07;;;;;;;1.77;1.20;;;;;;;25.02;37.24;102509.28;5009613;28;96757;-73
2023/05/25 02:27:35;;;;;;;1.65;1.00;;;;;;;25.02;37.03;102503.78;5010907;28;96837;-73
2023/05/25 02:30:02;;;;;;;0.93;0.77;;;;;;;25.02;37.25;102510.16;5010581;28;97388;-73
2023/05/25 02:32:30;;;;;;;2.13;0.80;;;;;;;25.01;37.34;102500.19;5010436;28;97313;-73
2023/05/25 02:34:56;;;;;;;1.27;0.82;;;;;;;25.01;36.98;102504.81;5010305;28;96766;-73
2023/05/25 02:37:23;;;;;;;1.13;0.90;;;;;;;25.01;37.17;102500.19;5009371;28;97195;-74
2023/05/25 02:39:50;;;;;;;1.48;0.90;;;;;;;25.01;37.27;102511.16;5008302;28;97894;-73
2023/05/25 02:42:16;;;;;;;1.27;0.80;;;;;;;25.01;37.15;102504.81;5008952;28;98972;-73
2023/05/25 02:44:47;;;;;;;1.50;0.90;;;;;;;25.01;37.28;102507.56;5009065;28;96858;-73
2023/05/25 02:47:14;;;;;;;1.00;0.68;;;;;;;25.00;37.07;102514.09;4998585;28;97123;-73
2023/05/25 02:49:41;;;;;;;1.33;0.90;;;;;;;24.99;37.38;102504.97;5008596;28;99839;-73
2023/05/25 02:52:08;;;;;;;1.20;0.80;;;;;;;24.99;37.25;102501.38;5009655;28;97186;-73
2023/05/25 02:54:35;;;;;;;1.10;0.88;;;;;;;24.99;37.19;102499.47;5010606;28;96732;-73
2023/05/25 02:57:03;;;;;;;1.25;0.90;;;;;;;24.99;37.12;102510.47;5009605;28;97271;-73
2023/05/25 02:59:30;;;;;;;1.48;0.82;;;;;;;24.98;36.90;102507.88;5008465;28;98276;-73
2023/05/25 03:01:58;;;;;;;0.98;0.85;;;;;;;24.98;37.13;102511.50;5000186;28;98471;-74
2023/05/25 03:04:25;;;;;;;2.45;1.40;;;;;;;24.98;37.34;102507.88;4978886;28;96592;-73
2023/05/25 03:06:52;;;;;;;1.50;0.98;;;;;;;24.98;36.72;102521.63;5008639;28;98106;-73
2023/05/25 03:09:20;;;;;;;1.08;0.93;;;;;;;24.98;37.17;102524.38;5008269;28;99964;-73
2023/05/25 03:11:48;;;;;;;0.95;0.85;;;;;;;24.96;36.96;102516.25;5008514;28;98437;-74
2023/05/25 03:14:17;;;;;;;1.65;1.20;;;;;;;24.97;37.21;102528.13;4992163;28;96863;-73
2023/05/25 03:16:51;;;;;;;1.42;1.00;;;;;;;24.95;37.03;102522.78;5009037;28;96780;-73
2023/05/25 03:19:21;;;;;;;0.98;0.73;;;;;;;24.96;37.28;102531.91;5005697;28;97922;-73
2023/05/25 03:21:48;;;;;;;1.08;0.90;;;;;;;24.96;37.14;102529.16;5007539;28;96717;-74
2023/05/25 03:24:14;;;;;;;1.58;1.00;;;;;;;24.95;37.05;102531.03;5007836;28;97581;-74
2023/05/25 03:26:42;;;;;;;1.35;0.93;;;;;;;24.95;37.14;102533.78;4997715;28;97106;-73
2023/05/25 03:29:09;;;;;;;1.13;0.80;;;;;;;24.95;37.05;102538.41;5008633;28;96775;-74
2023/05/25 03:31:36;;;;;;;0.80;0.70;;;;;;;24.95;37.17;102543.91;5008865;28;97312;-73
2023/05/25 03:34:03;;;;;;;1.20;0.88;;;;;;;24.95;37.32;102553.03;5003287;28;97004;-73
2023/05/25 03:36:32;;;;;;;1.55;0.90;;;;;;;24.95;37.32;102543.91;5011198;28;96698;-74
2023/05/25 03:38:59;;;;;;;1.35;0.95;;;;;;;24.94;37.34;102556.78;4991629;28;96876;-73
2023/05/25 03:41:26;;;;;;;1.30;0.70;;;;;;;24.94;37.21;102554.03;4991836;28;98513;-74
2023/05/25 03:43:54;;;;;;;1.05;0.80;;;;;;;24.93;37.04;102559.69;5007868;28;96739;-73
2023/05/25 03:46:21;;;;;;;1.42;1.10;;;;;;;24.92;37.10;102561.59;5008507;28;97056;-73
2023/05/25 03:48:47;;;;;;;1.30;0.98;;;;;;;24.92;37.06;102564.34;5008882;28;96989;-73
2023/05/25 03:51:15;;;;;;;1.30;0.77;;;;;;;24.94;37.01;102561.44;5005866;28;98686;-73
2023/05/25 03:53:41;;;;;;;1.20;0.70;;;;;;;24.93;37.39;102559.69;5006973;28;96928;-73
2023/05/25 03:56:08;;;;;;;1.15;0.80;;;;;;;24.93;37.22;102565.19;5009801;28;96965;-73
2023/05/25 03:58:36;;;;;;;1.55;0.82;;;;;;;24.92;37.12;102564.34;5008051;28;98581;-73
2023/05/25 04:01:02;;;;;;;1.05;0.90;;;;;;;24.92;37.14;102568.97;5007575;28;99430;-73
2023/05/25 04:03:31;;;;;;;1.33;0.85;;;;;;;24.91;37.16;102565.38;5009090;28;96422;-73
2023/05/25 04:05:59;;;;;;;1.88;0.90;;;;;;;24.92;37.02;102566.22;5009399;28;97027;-73
2023/05/25 04:08:27;;;;;;;1.48;1.10;;;;;;;24.92;36.99;102563.47;5008507;28;97673;-73
2023/05/25 04:10:55;;;;;;;1.60;1.13;;;;;;;24.91;37.20;102570.00;5006884;28;96686;-73
2023/05/25 04:13:22;;;;;;;1.30;0.95;;;;;;;24.90;36.99;102565.53;4990747;28;97011;-73
2023/05/25 04:15:49;;;;;;;1.48;1.00;;;;;;;24.91;37.04;102567.25;5007541;28;97694;-73
2023/05/25 04:18:20;;;;;;;1.20;0.93;;;;;;;24.90;37.41;102563.63;5002827;28;97736;-73
2023/05/25 04:20:48;;;;;;;1.00;0.70;;;;;;;24.90;37.09;102568.28;5006948;28;96576;-73
2023/05/25 04:23:18;;;;;;;1.48;0.98;;;;;;;24.90;37.10;102571.88;5006887;28;97032;-73
2023/05/25 04:25:44;;;;;;;0.95;0.70;;;;;;;24.89;37.17;102572.03;4986237;28;97027;-73
2023/05/25 04:28:13;;;;;;;1.88;1.00;;;;;;;24.89;37.07;102572.91;4990558;28;96668;-73
2023/05/25 04:30:55;;;;;;;1.25;0.75;;;;;;;24.88;37.03;102576.69;5004417;28;98370;-73
2023/05/25 04:33:43;;;;;;;1.20;0.88;;;;;;;24.87;37.38;102572.19;5007194;28;96765;-73
2023/05/25 04:36:16;;;;;;;1.80;1.00;;;;;;;24.87;37.06;102577.69;5007686;28;97216;-73
2023/05/25 04:38:46;;;;;;;1.70;1.10;;;;;;;24.87;36.78;102582.34;5000003;28;98987;-73
2023/05/25 04:41:14;;;;;;;1.00;0.90;;;;;;;24.87;36.96;102574.94;5010061;28;97047;-73
2023/05/25 04:43:45;;;;;;;1.15;0.98;;;;;;;24.87;37.02;102580.44;5006897;28;97522;-73
2023/05/25 04:46:31;;;;;;;1.48;0.90;;;;;;;24.87;37.14;102580.44;5009773;28;97008;-73
2023/05/25 04:48:58;;;;;;;1.52;1.00;;;;;;;24.88;37.17;102584.06;5008080;28;98891;-73
2023/05/25 04:51:25;;;;;;;1.17;0.80;;;;;;;24.88;37.07;102578.56;5001196;28;98533;-73
2023/05/25 04:53:51;;;;;;;1.85;0.90;;;;;;;24.88;37.31;102584.06;5009582;28;96590;-73
2023/05/25 04:56:21;;;;;;;1.42;1.00;;;;;;;24.89;37.14;102585.78;5011820;28;97152;-73
2023/05/25 04:58:47;;;;;;;1.25;0.80;;;;;;;24.89;37.25;102588.53;4989529;28;98535;-73
2023/05/25 05:01:14;;;;;;;2.00;1.23;;;;;;;24.89;37.18;102605.88;5007108;28;97438;-73
2023/05/25 05:03:40;;;;;;;1.88;1.15;;;;;;;24.88;37.08;102604.16;5009700;28;97175;-73
2023/05/25 05:06:09;;;;;;;1.17;0.90;;;;;;;24.88;36.95;102604.16;5007735;28;96963;-73
2023/05/25 05:08:36;;;;;;;1.73;0.93;;;;;;;24.88;37.18;102606.06;5006352;28;96918;-73
2023/05/25 05:11:03;;;;;;;1.00;0.88;;;;;;;24.88;37.08;102601.41;5002048;28;100907;-74
2023/05/25 05:13:30;;;;;;;1.13;0.75;;;;;;;24.88;37.23;102597.81;5009334;28;96773;-73
2023/05/25 05:15:57;;;;;;;1.50;1.00;;;;;;;24.88;37.19;102592.31;4999131;28;96957;-73
2023/05/25 05:18:23;;;;;;;1.50;0.93;;;;;;;24.88;37.14;102586.81;5009756;28;99500;-73
2023/05/25 05:20:50;;;;;;;1.60;1.00;;;;;;;24.89;37.24;102596.78;4999736;28;98703;-73
2023/05/25 05:23:17;;;;;;;1.25;0.77;;;;;;;24.89;37.06;102600.41;5009314;28;96781;-74
2023/05/25 05:25:45;;;;;;;1.52;0.90;;;;;;;24.90;37.04;102604.00;5000963;28;97050;-73
2023/05/25 05:28:12;;;;;;;1.98;0.88;;;;;;;24.89;37.09;102608.63;4992280;28;96988;-73
2023/05/25 05:30:39;;;;;;;1.60;0.80;;;;;;;24.88;37.00;102612.41;5003199;28;97762;-73
2023/05/25 05:33:06;;;;;;;1.00;0.80;;;;;;;24.90;36.81;102621.34;5001441;28;97226;-73
2023/05/25 05:35:42;;;;;;;0.95;0.85;;;;;;;24.90;36.93;102618.59;5009475;28;97122;-73
2023/05/25 05:38:13;;;;;;;1.02;0.70;;;;;;;24.90;37.35;102621.34;5009062;28;100736;-73
2023/05/25 05:40:41;;;;;;;1.10;0.90;;;;;;;24.91;36.99;102624.97;5008944;28;100399;-73
2023/05/25 05:43:09;;;;;;;1.33;0.95;;;;;;;24.91;37.00;102628.59;4992836;28;96838;-73
2023/05/25 05:45:36;;;;;;;1.33;0.88;;;;;;;24.91;37.08;102627.72;5006690;28;97128;-73
2023/05/25 05:48:03;;;;;;;1.20;0.95;;;;;;;24.92;37.10;102630.31;5009171;28;96874;-73
2023/05/25 05:50:30;;;;;;;1.30;0.88;;;;;;;24.91;37.12;102631.31;5008130;28;97102;-73
2023/05/25 05:52:57;;;;;;;1.70;0.90;;;;;;;24.91;36.93;102634.06;5008504;28;96674;-73
2023/05/25 05:55:24;;;;;;;1.55;0.85;;;;;;;24.92;36.92;102626.69;4992705;28;96602;-73
2023/05/25 05:57:51;;;;;;;1.05;0.80;;;;;;;24.92;36.94;102630.31;5008185;28;96871;-73
2023/05/25 06:00:18;;;;;;;1.17;0.70;;;;;;;24.91;36.90;102631.31;5008382;28;99106;-74
2023/05/25 06:02:45;;;;;;;1.15;1.00;;;;;;;24.93;37.21;102637.53;5008916;28;96947;-75
2023/05/25 06:05:18;;;;;;;1.92;1.10;;;;;;;24.92;36.99;102644.03;5015589;28;96714;-74
2023/05/25 06:07:44;;;;;;;0.95;0.80;;;;;;;24.93;36.94;102644.91;4993515;28;96790;-75
2023/05/25 06:10:12;;;;;;;1.98;1.20;;;;;;;24.93;36.87;102642.16;5008376;28;97843;-75
2023/05/25 06:12:38;;;;;;;1.20;0.80;;;;;;;24.93;37.11;102640.28;4998557;28;97670;-75
2023/05/25 06:15:06;;;;;;;1.55;0.73;;;;;;;24.93;37.17;102645.78;5009174;28;96754;-75
2023/05/25 06:17:35;;;;;;;1.30;1.00;;;;;;;24.94;37.10;102643.88;5005753;28;100168;-75
2023/05/25 06:20:04;;;;;;;1.55;0.80;;;;;;;24.93;36.86;102644.91;5008759;28;99211;-75
2023/05/25 06:22:32;;;;;;;0.80;0.80;;;;;;;24.94;36.89;102646.63;5008296;28;97125;-75
2023/05/25 06:24:58;;;;;;;2.58;1.45;;;;;;;24.94;37.11;102652.13;5008067;28;97865;-74
2023/05/25 06:27:28;;;;;;;1.02;0.82;;;;;;;24.94;36.99;102661.25;5009398;28;96983;-75
2023/05/25 06:29:54;;;;;;;1.45;0.90;;;;;;;24.95;37.26;102662.09;5005487;28;99946;-75
2023/05/25 06:32:21;;;;;;;1.88;0.93;;;;;;;24.94;37.08;102664.00;5002474;28;97126;-75
2023/05/25 06:34:48;;;;;;;1.65;1.08;;;;;;;24.95;36.92;102662.09;4998819;28;97233;-75
2023/05/25 06:37:15;;;;;;;1.60;1.10;;;;;;;24.95;36.90;102664.84;4998051;28;99033;-75
2023/05/25 06:39:42;;;;;;;1.45;0.82;;;;;;;24.95;36.99;102664.84;4991717;28;98801;-75
2023/05/25 06:42:10;;;;;;;1.52;1.00;;;;;;;24.95;36.98;102665.72;4991935;28;96956;-75
2023/05/25 06:44:48;;;;;;;1.30;0.80;;;;;;;24.94;37.10;102669.50;5008620;28;96843;-75
2023/05/25 06:47:14;;;;;;;1.88;1.00;;;;;;;24.95;37.12;102673.09;5007183;28;97995;-75
2023/05/25 06:49:41;;;;;;;2.08;1.13;;;;;;;24.95;37.29;102671.22;5008593;28;96683;-74
2023/05/25 06:52:07;;;;;;;1.35;0.88;;;;;;;24.96;37.05;102677.56;5009793;28;96645;-74
2023/05/25 06:54:34;;;;;;;1.60;1.00;;;;;;;24.96;37.29;102680.31;5010633;28;97028;-74
2023/05/25 06:57:01;;;;;;;1.52;0.88;;;;;;;24.97;37.25;102679.31;5008483;28;98199;-74
2023/05/25 06:59:27;;;;;;;2.15;0.85;;;;;;;24.97;37.02;102676.56;5010081;28;96872;-75
2023/05/25 07:01:54;;;;;;;1.40;0.80;;;;;;;24.96;37.00;102681.19;5010292;28;97589;-74
2023/05/25 07:04:22;;;;;;;1.88;1.15;;;;;;;24.97;37.27;102688.44;5009625;28;97059;-74
2023/05/25 07:06:48;;;;;;;2.17;0.90;;;;;;;24.97;36.79;102690.28;5008801;28;98019;-74
2023/05/25 07:09:16;;;;;;;1.13;1.02;;;;;;;24.97;37.19;102684.81;5009083;28;97465;-74
2023/05/25 07:11:42;;;;;;;1.92;0.90;;;;;;;24.98;37.11;102689.31;5009901;28;96948;-74
2023/05/25 07:14:09;;;;;;;1.48;0.90;;;;;;;24.98;37.14;102689.31;5007429;28;96822;-74
2023/05/25 07:16:36;;;;;;;1.55;0.90;;;;;;;24.98;37.10;102695.66;4991535;28;98113;-74
2023/05/25 07:19:02;;;;;;;1.35;1.00;;;;;;;24.97;37.49;102691.19;5010514;28;97115;-74
2023/05/25 07:21:32;;;;;;;2.22;1.13;;;;;;;24.99;37.17;102691.03;5020051;28;96828;-74
2023/05/25 07:23:59;;;;;;;1.40;0.90;;;;;;;24.98;37.29;102679.19;5009239;28;96666;-74
2023/05/25 07:26:26;;;;;;;2.42;1.10;;;;;;;24.98;37.04;102684.69;5009530;28;97432;-74
2023/05/25 07:28:53;;;;;;;3.35;0.98;;;;;;;24.99;36.95;102680.91;5008422;28;99090;-74
2023/05/25 07:31:21;;;;;;;1.63;1.20;;;;;;;24.99;37.27;102682.78;5007721;28;97172;-74
2023/05/25 07:33:48;;;;;;;1.30;0.90;;;;;;;25.00;37.08;102681.75;5008085;28;96906;-74
2023/05/25 07:36:14;;;;;;;1.73;1.00;;;;;;;25.00;37.15;102693.63;5007163;28;100005;-74
2023/05/25 07:38:41;;;;;;;2.63;1.00;;;;;;;25.00;37.22;102696.38;5009004;28;97580;-74
2023/05/25 07:41:07;;;;;;;2.25;1.02;;;;;;;25.00;37.14;102690.88;5009733;28;96649;-74
2023/05/25 07:43:35;;;;;;;2.63;1.15;;;;;;;25.00;37.25;102690.00;5006994;28;96960;-74
2023/05/25 07:46:01;;;;;;;0.85;0.77;;;;;;;25.01;37.57;102700.00;5008333;28;97291;-74
2023/05/25 07:48:28;;;;;;;2.38;0.93;;;;;;;25.00;37.19;102696.38;5008338;28;96873;-74
2023/05/25 07:50:55;;;;;;;1.50;1.13;;;;;;;25.01;37.30;102703.59;5008015;28;96890;-74
2023/05/25 07:53:22;;;;;;;1.95;0.98;;;;;;;25.01;37.27;102703.59;5009362;28;96818;-75
2023/05/25 07:55:48;;;;;;;3.25;1.00;;;;;;;25.01;37.07;102700.00;5006967;28;98169;-74
2023/05/25 07:58:15;;;;;;;1.80;1.20;;;;;;;25.02;37.10;102707.22;5007976;28;96803;-74
2023/05/25 08:00:42;;;;;;;2.38;1.00;;;;;;;25.01;37.21;102703.59;5007339;28;97120;-74
2023/05/25 08:03:09;;;;;;;2.42;1.10;;;;;;;25.03;37.38;102708.94;5008002;28;96665;-74
2023/05/25 08:05:36;;;;;;;1.65;0.95;;;;;;;25.02;37.39;102710.81;5007077;28;96789;-73
2023/05/25 08:08:03;;;;;;;1.58;0.80;;;;;;;25.02;37.21;102705.31;5006221;28;96964;-74
2023/05/25 08:10:32;;;;;;;3.03;1.20;;;;;;;25.03;37.14;102714.44;5008491;28;97198;-74
2023/05/25 08:12:59;;;;;;;1.42;0.82;;;;;;;25.04;37.02;102707.91;5009919;28;97670;-74
2023/05/25 08:15:25;;;;;;;1.92;1.00;;;;;;;25.04;36.93;102710.66;5010823;28;97743;-74
2023/05/25 08:17:52;;;;;;;3.08;1.10;;;;;;;25.04;37.16;102716.16;5013564;28;96986;-74
2023/05/25 08:20:19;;;;;;;2.03;1.20;;;;;;;25.05;37.40;102717.03;5013232;28;97118;-74
2023/05/25 08:22:45;;;;;;;2.85;1.10;;;;;;;25.05;37.12;102722.53;5011709;28;96868;-74
2023/05/25 08:25:12;;;;;;;1.85;1.00;;;;;;;25.05;37.34;102723.38;5011966;28;96867;-74
2023/05/25 08:27:39;;;;;;;2.15;1.20;;;;;;;25.06;36.89;102716.00;5012985;28;97359;-74
2023/05/25 08:30:06;;;;;;;1.90;1.10;;;;;;;25.07;37.25;102714.97;5012955;28;97245;-74
2023/05/25 08:32:32;;;;;;;2.90;1.13;;;;;;;25.07;37.22;102721.34;5011656;28;96736;-74
2023/05/25 08:35:00;;;;;;;2.97;1.40;;;;;;;25.07;37.21;102721.34;4993936;28;100860;-74
2023/05/25 08:37:28;;;;;;;1.60;1.10;;;;;;;25.09;37.33;102734.94;5020319;28;96680;-74
2023/05/25 08:39:54;;;;;;;1.80;1.27;;;;;;;25.08;37.40;102734.06;5012049;28;97031;-74
2023/05/25 08:42:22;;;;;;;1.30;0.95;;;;;;;25.08;37.28;102728.56;5011894;28;96656;-74
2023/05/25 08:44:49;;;;;;;2.28;1.00;;;;;;;25.09;37.20;102735.78;5010536;28;97822;-74
2023/05/25 08:47:16;;;;;;;1.98;1.30;;;;;;;25.10;37.18;102728.41;5012341;28;97315;-74
2023/05/25 08:49:43;;;;;;;2.88;1.20;;;;;;;25.10;37.20;102734.78;5012143;28;97361;-74
2023/05/25 08:52:13;;;;;;;2.08;1.00;;;;;;;25.11;37.13;102733.75;5012227;28;96809;-74
2023/05/25 08:54:43;;;;;;;2.13;1.30;;;;;;;25.10;37.15;102732.03;5010742;28;96935;-74
2023/05/25 08:57:12;;;;;;;2.15;1.30;;;;;;;25.11;37.26;102738.38;4993583;28;97138;-74
2023/05/25 09:00:00;;;;;;;2.90;1.25;;;;;;;25.12;37.13;102731.88;5010408;28;96711;-74
2023/05/25 09:02:52;;;;;;;2.10;1.20;;;;;;;25.11;37.24;102732.88;5012446;28;96707;-74
2023/05/25 09:05:19;;;;;;;2.05;1.30;;;;;;;25.09;37.06;102735.78;5012133;28;99937;-73
2023/05/25 09:07:47;;;;;;;1.60;1.10;;;;;;;25.10;37.29;102734.78;5010884;28;97259;-74
2023/05/25 09:10:14;;;;;;;3.05;1.60;;;;;;;25.11;37.02;102733.75;5011997;28;98880;-74
2023/05/25 09:12:41;;;;;;;2.88;1.27;;;;;;;25.11;37.05;102736.50;5012725;28;96691;-74
2023/05/25 09:15:11;;;;;;;2.58;1.10;;;;;;;25.13;37.16;102747.34;5009656;28;97417;-74
2023/05/25 09:17:39;;;;;;;3.45;1.30;;;;;;;25.11;37.20;102744.75;5010383;28;97894;-74
2023/05/25 09:20:09;;;;;;;2.42;1.05;;;;;;;25.12;37.17;102749.22;5010067;28;97170;-73
2023/05/25 09:22:36;;;;;;;1.73;1.10;;;;;;;25.12;37.09;102745.63;5011214;28;96703;-75
2023/05/25 09:25:05;;;;;;;1.67;0.98;;;;;;;25.13;37.21;102747.34;5011286;28;96796;-73
2023/05/25 09:27:35;;;;;;;2.80;1.30;;;;;;;25.12;37.19;102737.38;5010982;28;96950;-73
2023/05/25 09:30:03;;;;;;;1.65;1.08;;;;;;;25.13;37.33;102741.84;5011290;28;96825;-74
2023/05/25 09:32:30;;;;;;;1.98;1.10;;;;;;;25.12;37.03;102749.22;5011075;28;96739;-74
2023/05/25 09:35:13;;;;;;;1.88;1.10;;;;;;;25.13;36.97;102744.59;5011089;28;97027;-74
2023/05/25 09:37:40;;;;;;;3.22;1.30;;;;;;;25.13;36.95;102744.59;5011339;28;96827;-74
2023/05/25 09:40:09;;;;;;;2.15;1.10;;;;;;;25.12;37.07;102751.97;5009559;28;96919;-74
2023/05/25 09:42:36;;;;;;;1.42;1.05;;;;;;;25.12;37.01;102748.38;5009915;28;96934;-74
2023/05/25 09:45:04;;;;;;;1.83;1.25;;;;;;;25.13;36.95;102748.19;4992643;28;99037;-74
2023/05/25 09:47:31;;;;;;;1.42;1.10;;;;;;;25.13;36.96;102755.59;5009643;28;97015;-74
2023/05/25 09:49:58;;;;;;;2.13;1.17;;;;;;;25.13;37.14;102750.09;5010186;28;96809;-74
2023/05/25 09:52:26;;;;;;;2.63;1.13;;;;;;;25.13;37.20;102748.19;5018080;28;96898;-74
2023/05/25 09:54:53;;;;;;;2.35;1.38;;;;;;;25.14;36.74;102751.81;5011782;28;96976;-74
2023/05/25 09:57:20;;;;;;;2.30;1.10;;;;;;;25.14;36.98;102751.81;5010568;28;97835;-74
2023/05/25 09:59:47;;;;;;;1.58;1.15;;;;;;;25.14;37.17;102757.31;5013023;28;96710;-74
2023/05/25 10:02:14;;;;;;;2.15;1.20;;;;;;;25.14;37.25;102755.44;5003297;28;97449;-74
2023/05/25 10:04:41;;;;;;;1.77;1.10;;;;;;;25.15;37.13;102756.28;5009792;28;98195;-74
2023/05/25 10:07:08;;;;;;;2.17;1.10;;;;;;;25.14;37.02;102752.69;5011373;28;97933;-74
2023/05/25 10:09:39;;;;;;;3.30;1.20;;;;;;;25.15;36.89;102743.41;5011966;28;96729;-73
2023/05/25 10:12:07;;;;;;;3.35;1.35;;;;;;;25.15;37.15;102753.53;5011516;28;96919;-74
2023/05/25 10:14:36;;;;;;;1.58;1.17;;;;;;;25.16;36.91;102755.28;5011098;28;97545;-74
2023/05/25 10:17:05;;;;;;;3.13;1.42;;;;;;;25.15;37.42;102754.41;5009823;28;97731;-74
2023/05/25 10:19:44;;;;;;;1.80;1.25;;;;;;;25.16;37.03;102761.63;5001023;28;96751;-73
2023/05/25 10:22:23;;;;;;;2.65;1.17;;;;;;;25.16;37.15;102760.78;5008713;28;98553;-74
2023/05/25 10:25:12;;;;;;;2.13;1.30;;;;;;;25.16;37.11;102761.63;5018517;28;96751;-74
2023/05/25 10:27:59;;;;;;;2.75;1.45;;;;;;;25.15;36.88;102764.53;4992417;28;97820;-73
2023/05/25 10:30:26;;;;;;;1.65;0.90;;;;;;;25.14;36.96;102766.44;5010327;28;97089;-73
2023/05/25 10:32:56;;;;;;;2.17;1.17;;;;;;;25.15;36.88;102759.91;5011261;28;96971;-74
2023/05/25 10:35:23;;;;;;;2.10;0.90;;;;;;;25.14;37.09;102758.19;5010284;28;98895;-74
2023/05/25 10:37:51;;;;;;;3.05;1.15;;;;;;;25.16;37.01;102756.13;5010047;28;97010;-74
2023/05/25 10:40:20;;;;;;;3.15;1.25;;;;;;;25.16;36.98;102755.28;5010714;28;96924;-73
2023/05/25 10:42:48;;;;;;;2.03;1.30;;;;;;;25.15;37.04;102757.16;5010891;28;96589;-74
2023/05/25 10:45:15;;;;;;;2.00;1.20;;;;;;;25.16;37.07;102756.13;5007249;28;98148;-73
2023/05/25 10:47:42;;;;;;;2.92;1.20;;;;;;;25.16;36.88;102750.63;4992559;28;100011;-73
2023/05/25 10:50:21;;;;;;;1.55;1.17;;;;;;;25.17;37.14;102748.75;5009232;28;96689;-73
2023/05/25 10:53:10;;;;;;;2.05;1.00;;;;;;;25.18;37.12;102750.47;5009570;28;96719;-73
2023/05/25 10:56:04;;;;;;;1.70;1.15;;;;;;;25.16;37.13;102750.63;4998386;28;100155;-74
2023/05/25 10:58:31;;;;;;;1.65;0.90;;;;;;;25.15;37.01;102751.66;5000252;28;99896;-73
2023/05/25 11:01:02;;;;;;;2.20;1.20;;;;;;;25.17;36.91;102755.13;5008990;28;97093;-74
2023/05/25 11:03:47;;;;;;;1.80;1.20;;;;;;;25.18;36.89;102739.47;5010148;28;96713;-74
2023/05/25 11:06:20;;;;;;;2.30;1.40;;;;;;;25.15;37.06;102748.91;5022653;28;97735;-74
2023/05/25 11:08:48;;;;;;;2.78;1.20;;;;;;;25.16;36.79;102747.03;5024563;28;97746;-74
2023/05/25 11:11:15;;;;;;;3.22;1.10;;;;;;;25.17;37.15;102738.63;5011405;28;96842;-73
2023/05/25 11:13:46;;;;;;;1.73;1.17;;;;;;;25.18;36.97;102740.34;5001725;28;96942;-73
2023/05/25 11:16:42;;;;;;;2.13;1.20;;;;;;;25.18;37.07;102740.34;5009626;28;97895;-74
2023/05/25 11:19:14;;;;;;;3.50;1.30;;;;;;;25.18;36.94;102740.34;5001592;28;97854;-73
2023/05/25 11:21:42;;;;;;;2.58;1.38;;;;;;;25.18;36.99;102729.34;5009008;28;97215;-74
2023/05/25 11:24:14;;;;;;;1.95;1.10;;;;;;;25.19;37.11;102727.47;5006316;28;96957;-73
2023/05/25 11:27:00;;;;;;;2.38;1.20;;;;;;;25.20;36.82;102729.19;5009452;28;97468;-74
2023/05/25 11:29:30;;;;;;;2.13;1.15;;;;;;;25.19;36.88;102733.81;5012152;28;98435;-74
2023/05/25 11:31:57;;;;;;;1.60;1.25;;;;;;;25.18;36.91;102728.47;5009829;28;96737;-74